EmailTwitter


Surface observations / France / LFMP (07747)

Regions: Quebec | Canada | USA | Europe | France | UK | Elsewhere
Station
Display
Info & Location for LFMP (07747) | Help decoding METAR

Weather Conditions observed on 2018/08/14 at 10:30 UTC at PERPIGNAN/RIVESA, FR (LFMP)

Sky conditions: variable clouds.

Temperature: 26.0 Celsius.

Dewpoint: 14.0 Celsius.

Relative Humidity: 48%

Humidex: 29.

Winds: Northwest at 31 km/h or 17 knots.

Mean Sea level Pressure: 101.80 kilopascals.

Horizontal visibility: 6.21 statute miles or 9.94 kilometers.

Coded METAR:

LFMP 141030Z AUTO 31017KT 270V340 9999 FEW048 SCT054 26/14 Q1018 TEMPO

31025G35KT=